Time;durP1;ratioP1;P1;durP2;ratioP2;P2;SDS_P1;SDS_P2;PMS_P1;PMS_P2;Temp;Humidity;BMP_temperature;BMP_pressure;BME280_temperature;BME280_humidity;BME280_pressure;Samples;Min_cycle;Max_cycle;Signal;HPM_P1;HPM_P2
2021/01/06 00:01:40;;;;;;;11.30;5.57;;;1.00;99.90;;;;;;4201769;28;20459;-55
2021/01/06 00:03:41;;;;;;;12.47;6.43;;;1.00;99.90;;;;;;4202396;28;20950;-55
2021/01/06 00:05:43;;;;;;;11.70;5.83;;;1.00;99.90;;;;;;4201076;28;20470;-54
2021/01/06 00:07:46;;;;;;;13.70;6.10;;;1.10;99.90;;;;;;4202443;28;20467;-54
2021/01/06 00:09:48;;;;;;;13.47;6.20;;;1.10;99.90;;;;;;4201060;28;20467;-58
2021/01/06 00:11:49;;;;;;;12.57;5.60;;;1.10;99.90;;;;;;4200413;28;20473;-54
2021/01/06 00:13:51;;;;;;;14.60;6.57;;;1.10;99.90;;;;;;4201794;28;20467;-55
2021/01/06 00:15:52;;;;;;;12.90;6.43;;;1.10;99.90;;;;;;4202545;28;20485;-55
2021/01/06 00:17:54;;;;;;;16.77;7.23;;;1.10;99.90;;;;;;4201970;28;20470;-55
2021/01/06 00:19:55;;;;;;;12.70;6.67;;;1.10;99.90;;;;;;4202231;28;20611;-54
2021/01/06 00:21:56;;;;;;;12.80;6.20;;;1.10;99.90;;;;;;4201365;28;20489;-54
2021/01/06 00:24:01;;;;;;;16.53;7.33;;;1.10;99.90;;;;;;4202795;28;20459;-54
2021/01/06 00:26:03;;;;;;;14.00;6.80;;;1.10;99.90;;;;;;4201425;28;20486;-54
2021/01/06 00:28:05;;;;;;;16.13;6.10;;;1.20;99.90;;;;;;4201798;28;20475;-54
2021/01/06 00:30:12;;;;;;;13.23;6.10;;;1.20;99.90;;;;;;4201609;28;21136;-54
2021/01/06 00:32:13;;;;;;;13.17;6.20;;;1.20;99.90;;;;;;4201171;28;20531;-54
2021/01/06 00:34:16;;;;;;;14.03;6.30;;;1.20;99.90;;;;;;4202110;28;20482;-54
2021/01/06 00:36:19;;;;;;;14.83;7.33;;;1.20;99.90;;;;;;4200409;28;20460;-54
2021/01/06 00:38:21;;;;;;;12.97;5.80;;;1.20;99.90;;;;;;4201967;28;20529;-55
2021/01/06 00:40:22;;;;;;;15.07;6.77;;;1.20;99.90;;;;;;4201787;28;20945;-54
2021/01/06 00:42:24;;;;;;;11.13;5.90;;;1.20;99.90;;;;;;4201092;28;20487;-54
2021/01/06 00:44:26;;;;;;;11.83;5.23;;;1.20;99.90;;;;;;4202778;28;20479;-54
2021/01/06 00:46:29;;;;;;;14.93;6.23;;;1.30;99.90;;;;;;4200186;28;20479;-54
2021/01/06 00:48:30;;;;;;;13.43;6.20;;;1.20;99.90;;;;;;4201181;28;20965;-54
2021/01/06 00:50:32;;;;;;;13.60;5.83;;;1.20;99.90;;;;;;4201254;28;20936;-54
2021/01/06 00:52:33;;;;;;;12.07;6.07;;;1.30;99.90;;;;;;4200862;28;20546;-54
2021/01/06 00:54:36;;;;;;;15.63;6.90;;;1.30;99.90;;;;;;4200723;28;20966;-54
2021/01/06 00:56:38;;;;;;;12.90;6.00;;;1.30;99.90;;;;;;4200705;28;20502;-54
2021/01/06 00:58:40;;;;;;;13.57;5.93;;;1.30;99.90;;;;;;4202432;28;20471;-54
2021/01/06 01:00:41;;;;;;;13.60;5.63;;;1.40;99.90;;;;;;4200418;28;20508;-54
2021/01/06 01:02:49;;;;;;;15.03;6.07;;;1.30;99.90;;;;;;4201559;28;20952;-54
2021/01/06 01:04:50;;;;;;;13.60;5.80;;;1.40;99.90;;;;;;4201098;28;21016;-54
2021/01/06 01:06:53;;;;;;;12.30;5.53;;;1.40;99.90;;;;;;4201423;28;20987;-54
2021/01/06 01:08:55;;;;;;;11.77;5.67;;;1.40;99.90;;;;;;4201269;28;20546;-54
2021/01/06 01:10:56;;;;;;;9.57;5.33;;;1.40;99.90;;;;;;4200886;28;20472;-52
2021/01/06 01:12:58;;;;;;;13.13;6.00;;;1.40;99.90;;;;;;4200801;28;20523;-54
2021/01/06 01:15:00;;;;;;;10.87;5.50;;;1.40;99.90;;;;;;4200914;28;20483;-54
2021/01/06 01:17:03;;;;;;;10.90;5.13;;;1.40;99.90;;;;;;4201705;28;20479;-53
2021/01/06 01:19:04;;;;;;;12.73;5.37;;;1.40;99.90;;;;;;4201706;28;20514;-53
2021/01/06 01:21:05;;;;;;;10.20;5.43;;;1.40;99.90;;;;;;4200992;28;20480;-54
2021/01/06 01:23:07;;;;;;;11.40;5.13;;;1.50;99.90;;;;;;4201316;28;20484;-53
2021/01/06 01:25:09;;;;;;;12.53;5.57;;;1.50;99.90;;;;;;4201126;28;20467;-54
2021/01/06 01:27:10;;;;;;;9.57;5.37;;;1.50;99.90;;;;;;4201181;28;21172;-54
2021/01/06 01:29:11;;;;;;;13.07;6.30;;;1.50;99.90;;;;;;4201100;28;20474;-53
2021/01/06 01:31:13;;;;;;;9.10;4.63;;;1.50;99.90;;;;;;4200995;28;22016;-54
2021/01/06 01:33:15;;;;;;;10.13;5.00;;;1.50;99.90;;;;;;4200803;28;20989;-53
2021/01/06 01:35:18;;;;;;;8.87;4.83;;;1.50;99.90;;;;;;4201084;28;20558;-54
2021/01/06 01:37:19;;;;;;;12.30;5.40;;;1.50;99.90;;;;;;4201217;28;21080;-54
2021/01/06 01:39:21;;;;;;;13.53;5.60;;;1.60;99.90;;;;;;4200042;28;20480;-57
2021/01/06 01:41:24;;;;;;;13.83;5.90;;;1.60;99.90;;;;;;4200953;28;20487;-54
2021/01/06 01:43:26;;;;;;;13.43;5.43;;;1.60;99.90;;;;;;4201070;28;20467;-54
2021/01/06 01:45:32;;;;;;;15.50;5.60;;;1.60;99.90;;;;;;4200524;28;20472;-54
2021/01/06 01:47:41;;;;;;;11.70;5.27;;;1.60;99.90;;;;;;4200712;28;20558;-54
2021/01/06 01:49:47;;;;;;;11.93;5.67;;;1.60;99.90;;;;;;4201742;28;20511;-54
2021/01/06 01:51:55;;;;;;;12.77;5.23;;;1.60;99.90;;;;;;4200294;28;20954;-54
2021/01/06 01:54:03;;;;;;;11.60;5.03;;;1.60;99.90;;;;;;4201341;28;20510;-53
2021/01/06 01:56:08;;;;;;;11.03;5.60;;;1.60;99.90;;;;;;4199320;28;20559;-53
2021/01/06 01:58:15;;;;;;;13.20;5.70;;;1.60;99.90;;;;;;4201443;28;20504;-54
2021/01/06 02:00:18;;;;;;;10.73;4.80;;;1.60;99.90;;;;;;4200290;28;20517;-54
2021/01/06 02:02:30;;;;;;;10.73;5.27;;;1.60;99.90;;;;;;4200651;28;20526;-54
2021/01/06 02:04:39;;;;;;;12.93;5.47;;;1.60;99.90;;;;;;4199054;28;21145;-54
2021/01/06 02:06:47;;;;;;;11.00;5.20;;;1.70;99.90;;;;;;4200245;28;20478;-54
2021/01/06 02:08:53;;;;;;;12.23;5.30;;;1.70;99.90;;;;;;4200379;28;20478;-55
2021/01/06 02:10:57;;;;;;;10.00;4.43;;;1.70;99.90;;;;;;4200354;28;20528;-54
2021/01/06 02:13:02;;;;;;;9.50;4.27;;;1.70;99.90;;;;;;4200752;28;20583;-54
2021/01/06 02:15:10;;;;;;;9.60;4.53;;;1.70;99.90;;;;;;4200487;28;20457;-54
2021/01/06 02:17:14;;;;;;;9.27;4.77;;;1.70;99.90;;;;;;4199970;28;20523;-54
2021/01/06 02:19:18;;;;;;;8.30;4.30;;;1.70;99.90;;;;;;4200978;28;20464;-54
2021/01/06 02:21:22;;;;;;;12.07;4.90;;;1.70;99.90;;;;;;4199505;28;21074;-53
2021/01/06 02:23:23;;;;;;;10.60;4.67;;;1.70;99.90;;;;;;4200085;28;20476;-54
2021/01/06 02:25:27;;;;;;;12.43;5.00;;;1.70;99.90;;;;;;4200614;28;20815;-54
2021/01/06 02:27:29;;;;;;;7.43;3.93;;;1.70;99.90;;;;;;4199643;28;20493;-53
2021/01/06 02:29:31;;;;;;;11.43;4.53;;;1.70;99.90;;;;;;4200444;28;20468;-54
2021/01/06 02:31:33;;;;;;;8.77;3.80;;;1.70;99.90;;;;;;4199689;28;20460;-54
2021/01/06 02:33:35;;;;;;;10.10;4.33;;;1.70;99.90;;;;;;4199935;28;21106;-54
2021/01/06 02:35:37;;;;;;;8.73;3.83;;;1.60;99.90;;;;;;4199635;28;20474;-53
2021/01/06 02:37:39;;;;;;;8.73;4.10;;;1.70;99.90;;;;;;4199821;28;20467;-53
2021/01/06 02:39:41;;;;;;;8.70;4.33;;;1.70;99.90;;;;;;4199444;28;20476;-54
2021/01/06 02:41:43;;;;;;;8.93;4.00;;;1.70;99.90;;;;;;4200034;28;20482;-53
2021/01/06 02:43:45;;;;;;;9.27;4.40;;;1.70;99.90;;;;;;4199962;28;20457;-54
2021/01/06 02:45:46;;;;;;;8.87;3.47;;;1.70;99.90;;;;;;4199946;28;20463;-53
2021/01/06 02:47:49;;;;;;;9.37;4.00;;;1.70;99.90;;;;;;4200999;28;20502;-55
2021/01/06 02:49:52;;;;;;;7.63;3.83;;;1.70;99.90;;;;;;4200062;28;20476;-54
2021/01/06 02:51:58;;;;;;;8.07;4.00;;;1.70;99.90;;;;;;4199873;28;20464;-53
2021/01/06 02:54:04;;;;;;;10.40;4.43;;;1.70;99.90;;;;;;4199149;28;20534;-54
2021/01/06 02:56:07;;;;;;;12.67;4.30;;;1.80;99.90;;;;;;4199884;28;20486;-54
2021/01/06 02:58:10;;;;;;;9.30;4.00;;;1.80;99.90;;;;;;4200671;28;20475;-55
2021/01/06 03:00:16;;;;;;;11.00;4.23;;;1.80;99.90;;;;;;4203129;28;20556;-53
2021/01/06 03:02:21;;;;;;;9.20;4.47;;;1.80;99.90;;;;;;4202805;28;20483;-54
2021/01/06 03:04:26;;;;;;;9.30;4.23;;;1.80;99.90;;;;;;4203267;28;20783;-53
2021/01/06 03:06:33;;;;;;;10.37;3.70;;;1.80;99.90;;;;;;4203625;28;20476;-54
2021/01/06 03:08:36;;;;;;;8.67;4.17;;;1.80;99.90;;;;;;4203390;28;20501;-54
2021/01/06 03:10:39;;;;;;;8.27;3.80;;;1.80;99.90;;;;;;4203353;28;20529;-54
2021/01/06 03:12:42;;;;;;;10.90;4.13;;;1.80;99.90;;;;;;4203115;28;20811;-54
2021/01/06 03:14:43;;;;;;;8.17;3.80;;;1.80;99.90;;;;;;4203752;28;20465;-53
2021/01/06 03:16:45;;;;;;;7.87;3.90;;;1.80;99.90;;;;;;4203030;28;20480;-54
2021/01/06 03:18:47;;;;;;;7.77;3.40;;;1.80;99.90;;;;;;4203172;28;20860;-54
2021/01/06 03:20:51;;;;;;;9.00;4.40;;;1.80;99.90;;;;;;4202658;28;20493;-55
2021/01/06 03:22:58;;;;;;;8.67;4.20;;;1.80;99.90;;;;;;4203310;28;20797;-53
2021/01/06 03:25:04;;;;;;;10.17;4.40;;;1.90;99.90;;;;;;4203256;28;20468;-53
2021/01/06 03:27:07;;;;;;;10.13;4.10;;;1.90;99.90;;;;;;4201626;28;20533;-53
2021/01/06 03:29:10;;;;;;;10.73;4.27;;;1.90;99.90;;;;;;4202598;28;20513;-53
2021/01/06 03:31:16;;;;;;;9.33;4.27;;;1.90;99.90;;;;;;4202268;28;20533;-53
2021/01/06 03:33:23;;;;;;;9.70;4.30;;;2.00;99.90;;;;;;4203726;28;20475;-53
2021/01/06 03:35:30;;;;;;;9.73;4.43;;;2.00;99.90;;;;;;4202993;28;20470;-53
2021/01/06 03:37:37;;;;;;;7.63;4.20;;;2.00;99.90;;;;;;4202450;28;20951;-53
2021/01/06 03:39:43;;;;;;;7.30;3.40;;;2.00;99.90;;;;;;4202013;28;20471;-54
2021/01/06 03:41:45;;;;;;;10.63;4.07;;;2.00;99.90;;;;;;4202620;28;20538;-53
2021/01/06 03:43:50;;;;;;;8.20;4.00;;;2.10;99.90;;;;;;4202829;28;20471;-54
2021/01/06 03:45:57;;;;;;;7.40;3.73;;;2.10;99.90;;;;;;4202908;28;20493;-54
2021/01/06 03:48:02;;;;;;;9.57;4.13;;;2.10;99.90;;;;;;4202776;28;20535;-54
2021/01/06 03:50:11;;;;;;;8.73;3.90;;;2.10;99.90;;;;;;4203131;28;20466;-54
2021/01/06 03:52:21;;;;;;;8.10;3.87;;;2.10;99.90;;;;;;4203005;28;20848;-54
2021/01/06 03:54:30;;;;;;;7.60;4.10;;;2.10;99.90;;;;;;4202680;28;21491;-53
2021/01/06 03:56:38;;;;;;;8.20;3.97;;;2.10;99.90;;;;;;4203220;28;20479;-53
2021/01/06 03:58:47;;;;;;;8.47;3.90;;;2.10;99.90;;;;;;4201411;28;20471;-53
2021/01/06 04:00:53;;;;;;;6.10;3.53;;;2.10;99.90;;;;;;4202905;28;20490;-55
2021/01/06 04:02:58;;;;;;;9.50;4.10;;;2.10;99.90;;;;;;4202589;28;20928;-53
2021/01/06 04:05:07;;;;;;;8.13;4.20;;;2.10;99.90;;;;;;4202990;28;20526;-53
2021/01/06 04:07:16;;;;;;;11.03;4.10;;;2.10;99.90;;;;;;4203342;28;20475;-53
2021/01/06 04:09:25;;;;;;;7.70;4.00;;;2.20;99.90;;;;;;4201639;28;20461;-53
2021/01/06 04:11:29;;;;;;;8.90;3.80;;;2.20;99.90;;;;;;4201588;28;20483;-53
2021/01/06 04:13:30;;;;;;;8.00;3.97;;;2.20;99.90;;;;;;4201869;28;20497;-53
2021/01/06 04:15:31;;;;;;;7.80;3.80;;;2.20;99.90;;;;;;4202231;28;20478;-53
2021/01/06 04:17:36;;;;;;;7.13;3.87;;;2.20;99.90;;;;;;4203056;28;20545;-53
2021/01/06 04:19:37;;;;;;;8.60;4.23;;;2.20;99.90;;;;;;4202502;28;20465;-53
2021/01/06 04:21:38;;;;;;;9.00;4.20;;;2.20;99.90;;;;;;4202397;28;20487;-54
2021/01/06 04:23:40;;;;;;;9.37;4.30;;;2.20;99.90;;;;;;4202838;28;20470;-52
2021/01/06 04:25:43;;;;;;;6.77;4.00;;;2.20;99.90;;;;;;4201844;28;20478;-53
2021/01/06 04:27:44;;;;;;;8.97;4.00;;;2.20;99.90;;;;;;4201852;28;20479;-54
2021/01/06 04:29:47;;;;;;;11.67;4.50;;;2.20;99.90;;;;;;4201968;28;20468;-53
2021/01/06 04:31:48;;;;;;;7.77;4.00;;;2.20;99.90;;;;;;4202252;28;20488;-53
2021/01/06 04:33:53;;;;;;;10.67;4.13;;;2.20;99.90;;;;;;4201729;28;20568;-53
2021/01/06 04:35:55;;;;;;;8.23;4.03;;;2.20;99.90;;;;;;4201098;28;21071;-52
2021/01/06 04:37:57;;;;;;;6.37;3.60;;;2.20;99.90;;;;;;4200843;28;20733;-53
2021/01/06 04:39:59;;;;;;;7.70;3.70;;;2.20;99.90;;;;;;4201166;28;20489;-53
2021/01/06 04:42:04;;;;;;;6.63;3.60;;;2.20;99.90;;;;;;4203576;28;20481;-52
2021/01/06 04:44:25;;;;;;;8.17;3.90;;;2.30;99.90;;;;;;4200519;28;20826;-52
2021/01/06 04:46:33;;;;;;;4.90;2.83;;;2.20;99.90;;;;;;4202180;28;20478;-52
2021/01/06 04:48:55;;;;;;;7.53;3.60;;;2.20;99.90;;;;;;4201826;28;20510;-52
2021/01/06 04:51:19;;;;;;;7.07;3.17;;;2.20;99.90;;;;;;4201634;28;20471;-53
2021/01/06 04:53:32;;;;;;;6.87;3.00;;;2.20;99.90;;;;;;4202602;28;20486;-52
2021/01/06 04:55:43;;;;;;;6.83;3.47;;;2.20;99.90;;;;;;4199956;28;20485;-52
2021/01/06 04:58:15;;;;;;;7.13;3.60;;;2.10;99.90;;;;;;4201371;28;20965;-52
2021/01/06 05:00:31;;;;;;;4.80;2.70;;;2.10;99.90;;;;;;4200839;28;20530;-52
2021/01/06 05:03:10;;;;;;;6.07;3.20;;;2.10;99.90;;;;;;4201096;28;20478;-52
2021/01/06 05:05:39;;;;;;;7.73;3.40;;;2.10;99.90;;;;;;4201833;28;20480;-52
2021/01/06 05:07:59;;;;;;;4.83;2.87;;;2.10;99.90;;;;;;4201466;28;21142;-52
2021/01/06 05:10:08;;;;;;;7.80;3.57;;;2.00;99.90;;;;;;4201226;28;20470;-52
2021/01/06 05:12:14;;;;;;;6.83;3.30;;;2.00;99.90;;;;;;4201265;28;20485;-52
2021/01/06 05:14:20;;;;;;;8.90;3.93;;;2.00;99.90;;;;;;4201808;28;20484;-52
2021/01/06 05:16:30;;;;;;;7.57;3.63;;;2.00;99.90;;;;;;4201268;28;20492;-52
2021/01/06 05:18:32;;;;;;;7.90;3.83;;;2.00;99.90;;;;;;4201195;28;20933;-52
2021/01/06 05:20:34;;;;;;;9.10;3.87;;;2.00;99.90;;;;;;4200348;28;20481;-52
2021/01/06 05:22:36;;;;;;;10.30;3.80;;;2.10;99.90;;;;;;4201541;28;20919;-52
2021/01/06 05:24:41;;;;;;;7.77;3.37;;;2.00;99.90;;;;;;4201159;28;20529;-52
2021/01/06 05:26:42;;;;;;;9.00;3.40;;;2.00;99.90;;;;;;4201513;28;20473;-52
2021/01/06 05:28:46;;;;;;;7.90;3.50;;;2.00;99.90;;;;;;4201689;28;20466;-52
2021/01/06 05:30:52;;;;;;;7.43;3.30;;;2.00;99.90;;;;;;4201816;28;20481;-52
2021/01/06 05:32:56;;;;;;;7.93;3.17;;;1.90;99.90;;;;;;4201520;28;20497;-52
2021/01/06 05:35:01;;;;;;;6.67;3.13;;;1.90;99.90;;;;;;4201340;28;20533;-56
2021/01/06 05:37:02;;;;;;;4.73;2.30;;;1.90;99.90;;;;;;4201480;28;20558;-52
2021/01/06 05:39:20;;;;;;;5.63;2.83;;;1.90;99.90;;;;;;4201604;28;20940;-52
2021/01/06 05:41:21;;;;;;;6.30;2.93;;;1.90;99.90;;;;;;4201363;28;20463;-52
2021/01/06 05:43:39;;;;;;;7.17;2.80;;;1.90;99.90;;;;;;4199842;28;20465;-52
2021/01/06 05:45:47;;;;;;;7.50;2.93;;;1.80;99.90;;;;;;4201210;28;20485;-52
2021/01/06 05:47:51;;;;;;;6.63;2.50;;;1.80;99.90;;;;;;4200267;28;20580;-52
2021/01/06 05:49:54;;;;;;;5.50;2.80;;;1.90;99.90;;;;;;4200803;28;21933;-55
2021/01/06 05:51:57;;;;;;;4.87;2.50;;;1.80;99.90;;;;;;4201132;28;20931;-53
2021/01/06 05:54:01;;;;;;;4.97;2.60;;;1.90;99.90;;;;;;4201070;28;20591;-52
2021/01/06 05:56:17;;;;;;;3.13;2.10;;;1.90;99.90;;;;;;4201331;28;21182;-52
2021/01/06 05:58:22;;;;;;;4.40;2.20;;;1.90;99.90;;;;;;4199967;28;20479;-52
2021/01/06 06:00:50;;;;;;;5.97;2.50;;;1.90;99.90;;;;;;4200290;28;20493;-52
2021/01/06 06:03:06;;;;;;;3.40;2.13;;;1.90;99.90;;;;;;4191690;28;21576;-52
2021/01/06 06:05:31;;;;;;;4.60;2.27;;;1.90;99.90;;;;;;4200587;28;20871;-52
2021/01/06 06:07:37;;;;;;;3.70;2.10;;;1.90;99.90;;;;;;4200432;28;20468;-52
2021/01/06 06:09:57;;;;;;;5.20;2.40;;;1.90;99.90;;;;;;4200670;28;20464;-52
2021/01/06 06:12:21;;;;;;;4.93;2.47;;;1.90;99.90;;;;;;4197843;28;20474;-52
2021/01/06 06:14:48;;;;;;;5.17;2.77;;;1.90;99.90;;;;;;4200943;28;20458;-51
2021/01/06 06:17:00;;;;;;;5.40;2.80;;;1.90;99.90;;;;;;4199464;28;20469;-52
2021/01/06 06:19:14;;;;;;;5.73;2.70;;;1.90;99.90;;;;;;4200445;28;20467;-52
2021/01/06 06:21:30;;;;;;;4.30;2.60;;;2.00;99.90;;;;;;4200065;28;20477;-52
2021/01/06 06:23:56;;;;;;;4.70;2.40;;;2.00;99.90;;;;;;4200583;28;20948;-53
2021/01/06 06:26:05;;;;;;;4.17;2.37;;;2.00;99.90;;;;;;4200327;28;20747;-52
2021/01/06 06:28:14;;;;;;;4.57;2.40;;;2.00;99.90;;;;;;4200379;28;20485;-52
2021/01/06 06:30:26;;;;;;;4.30;2.30;;;2.00;99.90;;;;;;4199442;28;20470;-54
2021/01/06 06:32:30;;;;;;;5.77;2.47;;;2.00;99.90;;;;;;4200492;28;20499;-52
2021/01/06 06:34:34;;;;;;;5.57;2.50;;;2.00;99.90;;;;;;4203035;28;20473;-52
2021/01/06 06:36:38;;;;;;;5.40;2.67;;;2.00;99.90;;;;;;4203250;28;20480;-52
2021/01/06 06:38:41;;;;;;;5.13;2.40;;;2.00;99.90;;;;;;4203211;28;20480;-58
2021/01/06 06:40:56;;;;;;;4.43;2.30;;;2.00;99.90;;;;;;4204222;28;20479;-52
2021/01/06 06:43:00;;;;;;;5.17;2.40;;;2.00;99.90;;;;;;4202914;28;20473;-52
2021/01/06 06:45:20;;;;;;;6.20;2.80;;;2.00;99.90;;;;;;4203489;28;20561;-53
2021/01/06 06:47:29;;;;;;;5.10;2.50;;;2.00;99.90;;;;;;4203252;28;20466;-53
2021/01/06 06:49:38;;;;;;;5.83;2.67;;;2.00;99.90;;;;;;4202317;28;20460;-53
2021/01/06 06:51:46;;;;;;;6.57;2.97;;;2.00;99.90;;;;;;4204140;28;20488;-53
2021/01/06 06:53:57;;;;;;;4.50;2.60;;;2.00;99.90;;;;;;4203860;28;20604;-57
2021/01/06 06:56:10;;;;;;;6.17;2.80;;;2.00;99.90;;;;;;4203431;28;20904;-53
2021/01/06 06:58:31;;;;;;;6.17;3.13;;;2.00;99.90;;;;;;4203087;28;20474;-53
2021/01/06 07:00:36;;;;;;;7.13;3.23;;;2.00;99.90;;;;;;4203077;28;20547;-53
2021/01/06 07:02:49;;;;;;;4.80;2.63;;;2.10;99.90;;;;;;4202867;28;20453;-53
2021/01/06 07:04:54;;;;;;;4.90;2.87;;;2.10;99.90;;;;;;4204153;28;20486;-53
2021/01/06 07:06:58;;;;;;;5.23;2.57;;;2.10;99.90;;;;;;4202843;28;20495;-53
2021/01/06 07:09:02;;;;;;;6.10;2.87;;;2.10;99.90;;;;;;4202956;28;20473;-54
2021/01/06 07:11:07;;;;;;;6.10;3.10;;;2.10;99.90;;;;;;4204117;28;20480;-53
2021/01/06 07:13:15;;;;;;;5.20;2.60;;;2.10;99.90;;;;;;4202810;28;20489;-53
2021/01/06 07:15:28;;;;;;;7.50;2.57;;;2.10;99.90;;;;;;4202746;28;20468;-53
2021/01/06 07:17:33;;;;;;;4.27;2.70;;;2.10;99.90;;;;;;4203104;28;20473;-52
2021/01/06 07:19:38;;;;;;;6.43;2.87;;;2.10;99.90;;;;;;4202325;28;20485;-52
2021/01/06 07:21:40;;;;;;;4.83;2.53;;;2.10;99.90;;;;;;4203547;28;20469;-52
2021/01/06 07:23:47;;;;;;;4.77;2.40;;;2.10;99.90;;;;;;4202544;28;20947;-53
2021/01/06 07:26:01;;;;;;;5.30;2.73;;;2.10;99.90;;;;;;4201741;28;20470;-53
2021/01/06 07:28:05;;;;;;;4.23;2.30;;;2.10;99.90;;;;;;4202070;28;20465;-53
2021/01/06 07:30:09;;;;;;;4.07;2.33;;;2.20;99.90;;;;;;4203417;28;20604;-52
2021/01/06 07:32:12;;;;;;;5.17;2.57;;;2.20;99.90;;;;;;4202710;28;20475;-55
2021/01/06 07:34:20;;;;;;;5.07;2.37;;;2.20;99.90;;;;;;4202627;28;20488;-53
2021/01/06 07:36:25;;;;;;;5.67;2.50;;;2.20;99.90;;;;;;4202918;28;20491;-54
2021/01/06 07:38:34;;;;;;;3.93;2.53;;;2.20;99.90;;;;;;4202228;28;20595;-56
2021/01/06 07:40:37;;;;;;;6.63;2.80;;;2.20;99.90;;;;;;4202074;28;20483;-54
2021/01/06 07:42:40;;;;;;;5.67;2.57;;;2.20;99.90;;;;;;4202275;28;20479;-53
2021/01/06 07:44:42;;;;;;;4.97;2.90;;;2.30;99.90;;;;;;4201211;28;20469;-53
2021/01/06 07:46:54;;;;;;;6.10;2.77;;;2.30;99.90;;;;;;4202374;28;20474;-54
2021/01/06 07:49:10;;;;;;;5.83;2.57;;;2.30;99.90;;;;;;4202587;28;20942;-54
2021/01/06 07:51:22;;;;;;;4.77;2.60;;;2.20;99.90;;;;;;4202265;28;20477;-52
2021/01/06 07:53:27;;;;;;;7.57;3.00;;;2.20;99.90;;;;;;4201969;28;20502;-53
2021/01/06 07:55:34;;;;;;;4.47;2.70;;;2.20;99.90;;;;;;4202269;28;20485;-53
2021/01/06 07:57:41;;;;;;;5.37;2.50;;;2.20;99.90;;;;;;4201828;28;20475;-54
2021/01/06 07:59:51;;;;;;;5.60;2.73;;;2.20;99.90;;;;;;4203427;28;20467;-54
2021/01/06 08:02:02;;;;;;;5.17;2.50;;;2.20;99.90;;;;;;4202682;28;20482;-53
2021/01/06 08:04:09;;;;;;;5.30;2.43;;;2.20;99.90;;;;;;4203454;28;20462;-54
2021/01/06 08:06:11;;;;;;;4.73;2.50;;;2.30;99.90;;;;;;4203632;28;20888;-53
2021/01/06 08:08:16;;;;;;;5.13;2.60;;;2.30;99.90;;;;;;4203316;28;20469;-53
2021/01/06 08:10:27;;;;;;;5.50;2.67;;;2.30;99.90;;;;;;4202537;28;20828;-53
2021/01/06 08:12:39;;;;;;;4.70;2.50;;;2.30;99.90;;;;;;4203006;28;20465;-53
2021/01/06 08:14:41;;;;;;;4.10;2.40;;;2.30;99.90;;;;;;4203370;28;20470;-53
2021/01/06 08:16:48;;;;;;;5.17;2.80;;;2.30;99.90;;;;;;4202090;28;20492;-53
2021/01/06 08:19:16;;;;;;;3.97;2.27;;;2.40;99.90;;;;;;4201908;28;20575;-53
2021/01/06 08:21:25;;;;;;;5.03;2.80;;;2.40;99.90;;;;;;4203148;28;20492;-53
2021/01/06 08:23:32;;;;;;;4.70;2.63;;;2.50;99.90;;;;;;4201273;28;21378;-53
2021/01/06 08:25:36;;;;;;;4.93;2.17;;;2.50;99.90;;;;;;4202779;28;20998;-54
2021/01/06 08:27:37;;;;;;;4.60;2.63;;;2.50;99.90;;;;;;4202359;28;20481;-53
2021/01/06 08:29:38;;;;;;;5.70;2.97;;;2.50;99.90;;;;;;4202193;28;21099;-53
2021/01/06 08:31:40;;;;;;;5.00;2.67;;;2.60;99.90;;;;;;4201465;28;20465;-54
2021/01/06 08:33:49;;;;;;;5.20;2.47;;;2.60;99.90;;;;;;4201682;28;20560;-54
2021/01/06 08:35:51;;;;;;;6.03;3.13;;;2.60;99.90;;;;;;4201887;28;20466;-55
2021/01/06 08:37:52;;;;;;;6.73;3.77;;;2.60;99.90;;;;;;4201959;28;20478;-54
2021/01/06 08:39:56;;;;;;;6.63;3.67;;;2.60;99.90;;;;;;4201535;28;20474;-54
2021/01/06 08:42:17;;;;;;;6.30;3.50;;;2.60;99.90;;;;;;4201768;28;20503;-54
2021/01/06 08:44:41;;;;;;;6.60;3.20;;;2.60;99.90;;;;;;4200945;28;20466;-53
2021/01/06 08:46:54;;;;;;;6.07;3.37;;;2.60;99.90;;;;;;4201843;28;20491;-53
2021/01/06 08:49:08;;;;;;;8.33;4.17;;;2.60;99.90;;;;;;4200908;28;20473;-54
2021/01/06 08:51:12;;;;;;;7.07;3.43;;;2.60;99.90;;;;;;4202153;28;20483;-53
2021/01/06 08:53:15;;;;;;;7.10;3.40;;;2.60;99.90;;;;;;4201423;28;21025;-56
2021/01/06 08:55:22;;;;;;;7.20;3.93;;;2.70;99.90;;;;;;4202323;28;20555;-53
2021/01/06 08:57:27;;;;;;;7.63;3.80;;;2.70;99.90;;;;;;4201690;28;20478;-54
2021/01/06 08:59:36;;;;;;;7.70;3.90;;;2.70;99.90;;;;;;4201421;28;20498;-55
2021/01/06 09:01:46;;;;;;;7.40;3.73;;;2.70;99.90;;;;;;4200550;28;20802;-54
2021/01/06 09:03:58;;;;;;;8.80;4.23;;;2.70;99.90;;;;;;4201922;28;20481;-54
2021/01/06 09:06:07;;;;;;;6.47;3.67;;;2.80;99.90;;;;;;4200457;28;20466;-54
2021/01/06 09:08:12;;;;;;;6.03;3.40;;;2.80;99.90;;;;;;4201823;28;20477;-54
2021/01/06 09:10:28;;;;;;;6.90;3.90;;;2.90;99.90;;;;;;4201352;28;20469;-54
2021/01/06 09:12:42;;;;;;;7.03;3.60;;;2.90;99.90;;;;;;4200501;28;20550;-55
2021/01/06 09:14:44;;;;;;;7.70;3.73;;;2.90;99.90;;;;;;4201131;28;20558;-54
2021/01/06 09:16:49;;;;;;;7.63;3.70;;;2.90;99.90;;;;;;4201211;28;20468;-54
2021/01/06 09:18:58;;;;;;;6.57;3.80;;;2.90;99.90;;;;;;4201842;28;20891;-54
2021/01/06 09:21:10;;;;;;;7.50;4.00;;;3.00;99.90;;;;;;4200936;28;20497;-56
2021/01/06 09:23:17;;;;;;;6.60;3.87;;;3.00;99.90;;;;;;4201553;28;20462;-57
2021/01/06 09:25:25;;;;;;;7.40;4.47;;;3.10;99.90;;;;;;4200864;28;20470;-54
2021/01/06 09:27:34;;;;;;;9.70;4.47;;;3.10;99.90;;;;;;4201791;28;20863;-54
2021/01/06 09:29:38;;;;;;;9.90;4.70;;;3.10;99.90;;;;;;4200839;28;20466;-54
2021/01/06 09:31:42;;;;;;;7.77;4.13;;;3.20;99.90;;;;;;4201101;28;20513;-54
2021/01/06 09:33:45;;;;;;;9.90;4.87;;;3.20;99.90;;;;;;4200383;28;20492;-53
2021/01/06 09:35:46;;;;;;;9.27;4.43;;;3.20;99.90;;;;;;4200188;28;20466;-54
2021/01/06 09:37:56;;;;;;;7.77;4.00;;;3.30;99.90;;;;;;4202228;28;21180;-54
2021/01/06 09:40:08;;;;;;;7.20;4.00;;;3.30;99.90;;;;;;4201847;28;20506;-54
2021/01/06 09:42:13;;;;;;;8.57;4.07;;;3.40;99.90;;;;;;4200523;28;20857;-54
2021/01/06 09:44:15;;;;;;;6.67;3.80;;;3.30;99.90;;;;;;4200298;28;20467;-54
2021/01/06 09:46:21;;;;;;;5.90;3.60;;;3.40;99.90;;;;;;4200374;28;20502;-54
2021/01/06 09:48:23;;;;;;;8.30;4.17;;;3.40;99.90;;;;;;4200932;28;20479;-54
2021/01/06 09:50:30;;;;;;;6.83;3.37;;;3.40;99.90;;;;;;4202846;28;20946;-54
2021/01/06 09:52:34;;;;;;;7.20;4.00;;;3.40;99.90;;;;;;4201157;28;20520;-54
2021/01/06 09:54:36;;;;;;;7.00;3.90;;;3.40;99.90;;;;;;4201512;28;20487;-54
2021/01/06 09:56:38;;;;;;;6.93;3.73;;;3.40;99.90;;;;;;4201149;28;20945;-54
2021/01/06 09:58:40;;;;;;;7.70;4.20;;;3.40;99.90;;;;;;4200491;28;20779;-54
2021/01/06 10:00:48;;;;;;;7.67;4.30;;;3.40;99.90;;;;;;4201281;28;20500;-54
2021/01/06 10:02:50;;;;;;;7.00;3.87;;;3.40;99.90;;;;;;4200235;28;20551;-54
2021/01/06 10:04:55;;;;;;;9.13;4.50;;;3.40;99.90;;;;;;4200656;28;21010;-54
2021/01/06 10:07:35;;;;;;;8.70;4.20;;;3.50;99.90;;;;;;4201246;28;20479;-54
2021/01/06 10:09:40;;;;;;;7.37;4.40;;;3.60;99.90;;;;;;4190332;28;20477;-54
2021/01/06 10:12:19;;;;;;;6.37;3.87;;;3.60;99.90;;;;;;4201812;28;20468;-55
2021/01/06 10:14:46;;;;;;;9.93;4.73;;;3.60;99.90;;;;;;4199273;28;20479;-54
2021/01/06 10:16:53;;;;;;;8.10;4.27;;;3.60;99.90;;;;;;4199827;28;20471;-54
2021/01/06 10:19:08;;;;;;;7.47;4.10;;;3.60;99.90;;;;;;4200813;28;21038;-54
2021/01/06 10:21:18;;;;;;;8.50;4.30;;;3.60;99.90;;;;;;4199921;28;20474;-54
2021/01/06 10:23:33;;;;;;;9.83;4.80;;;3.70;99.90;;;;;;4199449;28;20907;-54
2021/01/06 10:25:39;;;;;;;8.93;4.57;;;3.80;99.90;;;;;;4200902;28;20515;-54
2021/01/06 10:27:54;;;;;;;8.90;5.10;;;3.80;99.90;;;;;;4199745;28;20460;-54
2021/01/06 10:29:57;;;;;;;10.30;4.73;;;3.90;99.90;;;;;;4200069;28;20532;-54
2021/01/06 10:32:04;;;;;;;8.07;4.40;;;4.00;99.90;;;;;;4200727;28;20459;-59
2021/01/06 10:34:09;;;;;;;8.43;4.63;;;4.10;99.90;;;;;;4199957;28;21152;-55
2021/01/06 10:36:51;;;;;;;10.83;5.13;;;4.20;99.90;;;;;;4200836;28;20541;-54
2021/01/06 10:38:53;;;;;;;7.80;4.60;;;4.30;99.90;;;;;;4199605;28;20955;-54
2021/01/06 10:41:09;;;;;;;8.37;4.57;;;4.40;99.90;;;;;;4199309;28;20472;-54
2021/01/06 10:43:42;;;;;;;10.87;4.80;;;4.40;99.90;;;;;;4199768;28;20463;-53
2021/01/06 10:45:47;;;;;;;10.03;4.70;;;4.50;99.90;;;;;;4200543;28;20552;-55
2021/01/06 10:47:50;;;;;;;12.37;5.40;;;4.50;99.90;;;;;;4199754;28;20472;-55
2021/01/06 10:49:57;;;;;;;11.80;5.20;;;4.60;99.90;;;;;;4199531;28;20458;-57
2021/01/06 10:52:17;;;;;;;9.90;4.70;;;4.60;99.90;;;;;;4199681;28;20518;-54
2021/01/06 10:54:24;;;;;;;9.63;4.50;;;4.70;99.90;;;;;;4199347;28;20495;-54
2021/01/06 10:56:30;;;;;;;8.77;4.87;;;4.60;99.90;;;;;;4199969;28;20475;-54
2021/01/06 10:58:42;;;;;;;9.70;4.80;;;4.60;99.90;;;;;;4199573;28;20482;-54
2021/01/06 11:00:54;;;;;;;6.73;4.30;;;4.70;99.90;;;;;;4199087;28;20486;-59
2021/01/06 11:03:34;;;;;;;7.10;4.20;;;4.70;99.90;;;;;;4199482;28;20491;-54
2021/01/06 11:05:40;;;;;;;7.93;4.10;;;4.70;99.90;;;;;;4200132;28;20463;-54
2021/01/06 11:08:27;;;;;;;8.10;4.63;;;4.70;99.90;;;;;;4200106;28;20475;-54
2021/01/06 11:10:53;;;;;;;7.63;4.27;;;4.70;99.90;;;;;;4198818;28;22385;-54